Time;durP1;ratioP1;P1;durP2;ratioP2;P2;SDS_P1;SDS_P2;PMS_P1;PMS_P2;Temp;Humidity;BMP_temperature;BMP_pressure;BME280_temperature;BME280_humidity;BME280_pressure;Samples;Min_cycle;Max_cycle;Signal;HPM_P1;HPM_P2
2022/05/07 00:01:55;;;;;;;0.98;0.77;;;13.20;99.90;;;;;;4427310;32;20101;-71
2022/05/07 00:04:21;;;;;;;0.45;0.45;;;13.10;99.90;;;;;;4440322;32;20084;-71
2022/05/07 00:06:46;;;;;;;2.03;1.27;;;13.00;99.90;;;;;;4439609;32;20065;-70
2022/05/07 00:09:11;;;;;;;0.68;0.68;;;13.00;99.90;;;;;;4444663;32;20093;-70
2022/05/07 00:11:37;;;;;;;1.37;0.50;;;12.90;99.90;;;;;;4439807;32;20406;-70
2022/05/07 00:14:03;;;;;;;14.02;1.20;;;12.90;99.90;;;;;;4439613;32;20057;-71
2022/05/07 00:18:28;;;;;;;0.98;0.80;;;12.90;99.90;;;;;;4443117;32;20061;-70
2022/05/07 00:19:13;;;;;;;0.88;0.85;;;12.80;99.90;;;;;;4426605;32;20531;-70
2022/05/07 00:21:39;;;;;;;0.43;0.43;;;12.70;99.90;;;;;;4440409;32;20539;-72
2022/05/07 00:24:05;;;;;;;1.05;0.80;;;12.70;99.90;;;;;;4441105;32;20483;-71
2022/05/07 00:26:30;;;;;;;0.98;0.77;;;12.80;99.90;;;;;;4438484;32;20077;-71
2022/05/07 00:28:56;;;;;;;0.75;0.73;;;12.80;99.90;;;;;;4422449;32;20438;-71
2022/05/07 00:31:21;;;;;;;1.73;0.90;;;12.90;99.90;;;;;;4421193;32;20065;-71
2022/05/07 00:33:47;;;;;;;0.60;0.60;;;12.90;99.90;;;;;;4438430;32;20525;-71
2022/05/07 00:36:12;;;;;;;0.95;0.65;;;12.80;99.90;;;;;;4434743;32;20078;-71
2022/05/07 00:38:38;;;;;;;0.70;0.70;;;12.80;99.90;;;;;;4421764;32;20098;-71
2022/05/07 00:41:03;;;;;;;18.42;1.77;;;12.80;99.90;;;;;;4427055;32;20447;-71
2022/05/07 00:43:37;;;;;;;0.62;0.62;;;12.80;99.90;;;;;;4431787;32;20120;-71
2022/05/07 00:46:04;;;;;;;0.52;0.50;;;12.80;99.90;;;;;;4426625;32;20073;-71
2022/05/07 00:48:30;;;;;;;0.30;0.30;;;12.70;99.90;;;;;;4427935;32;20077;-71
2022/05/07 00:51:56;;;;;;;3.37;1.20;;;12.90;99.90;;;;;;4430622;32;20160;-71
2022/05/07 00:53:41;;;;;;;0.50;0.50;;;12.90;99.90;;;;;;4413125;32;20093;-71
2022/05/07 00:56:07;;;;;;;0.73;0.73;;;12.90;99.90;;;;;;4433514;32;20113;-71
2022/05/07 00:58:34;;;;;;;0.45;0.45;;;12.90;99.90;;;;;;4414631;32;20089;-71
2022/05/07 01:01:00;;;;;;;0.60;0.60;;;12.90;99.90;;;;;;4409141;32;20065;-71
2022/05/07 01:03:25;;;;;;;0.73;0.60;;;12.80;99.90;;;;;;4427699;32;20504;-71
2022/05/07 01:05:51;;;;;;;0.40;0.40;;;12.70;99.90;;;;;;4430698;32;20101;-71
2022/05/07 01:08:19;;;;;;;0.40;0.40;;;12.90;99.90;;;;;;4429529;32;20082;-71
2022/05/07 01:10:45;;;;;;;1.40;0.68;;;13.00;99.90;;;;;;4428022;32;20484;-70
2022/05/07 01:13:11;;;;;;;0.65;0.65;;;13.20;99.90;;;;;;4426714;32;20085;-70
2022/05/07 01:15:44;;;;;;;0.70;0.70;;;13.30;99.90;;;;;;4428765;32;20101;-70
2022/05/07 01:18:12;;;;;;;0.95;0.60;;;13.30;99.90;;;;;;4430035;32;20539;-70
2022/05/07 01:20:38;;;;;;;0.50;0.50;;;13.40;99.90;;;;;;4427911;32;20415;-70
2022/05/07 01:23:05;;;;;;;0.80;0.80;;;13.40;99.90;;;;;;4425318;32;20124;-70
2022/05/07 01:25:32;;;;;;;1.98;1.25;;;13.40;99.90;;;;;;4426305;32;20085;-71
2022/05/07 01:27:58;;;;;;;0.70;0.70;;;13.40;99.90;;;;;;4421219;32;20077;-70
2022/05/07 01:30:24;;;;;;;1.50;0.85;;;13.40;99.90;;;;;;4405522;32;20088;-70
2022/05/07 01:32:49;;;;;;;0.52;0.50;;;13.50;99.90;;;;;;4422913;32;20450;-70
2022/05/07 01:35:15;;;;;;;0.43;0.43;;;13.40;99.90;;;;;;4426562;32;20074;-70
2022/05/07 01:37:41;;;;;;;0.40;0.40;;;13.40;99.90;;;;;;4428067;32;20132;-70
2022/05/07 01:40:07;;;;;;;0.68;0.68;;;13.40;99.90;;;;;;4433459;32;20064;-70
2022/05/07 01:42:32;;;;;;;2.42;0.95;;;13.40;99.90;;;;;;4426817;32;20520;-72
2022/05/07 01:44:58;;;;;;;1.48;0.60;;;13.30;99.90;;;;;;4429631;32;20077;-70
2022/05/07 01:48:23;;;;;;;2.28;1.30;;;13.30;99.90;;;;;;4426860;32;20451;-72
2022/05/07 01:50:09;;;;;;;0.43;0.43;;;13.30;99.90;;;;;;4415108;32;20069;-70
2022/05/07 01:52:34;;;;;;;0.75;0.70;;;13.30;99.90;;;;;;4428765;32;20438;-70
2022/05/07 01:55:00;;;;;;;1.33;0.70;;;13.20;99.90;;;;;;4427778;32;20082;-70
2022/05/07 01:57:26;;;;;;;0.77;0.62;;;13.30;99.90;;;;;;4423195;32;20520;-72
2022/05/07 01:59:51;;;;;;;0.60;0.60;;;13.10;99.90;;;;;;4409976;32;20209;-72
2022/05/07 02:02:17;;;;;;;0.98;0.75;;;13.10;99.90;;;;;;4415708;32;20081;-71
2022/05/07 02:04:42;;;;;;;0.65;0.65;;;13.10;99.90;;;;;;4428936;32;20089;-71
2022/05/07 02:07:08;;;;;;;2.30;0.60;;;13.10;99.90;;;;;;4428172;32;20569;-71
2022/05/07 02:09:35;;;;;;;0.50;0.50;;;13.30;99.90;;;;;;4427835;32;20122;-71
2022/05/07 02:12:01;;;;;;;0.80;0.68;;;13.20;99.90;;;;;;4426437;32;20119;-71
2022/05/07 02:14:26;;;;;;;1.15;0.95;;;13.10;99.90;;;;;;4438779;32;20073;-71
2022/05/07 02:16:52;;;;;;;1.75;0.50;;;13.00;99.90;;;;;;4429075;32;20097;-71
2022/05/07 02:19:17;;;;;;;0.70;0.70;;;13.20;99.90;;;;;;4428181;32;20476;-71
2022/05/07 02:21:43;;;;;;;0.40;0.40;;;13.20;99.90;;;;;;4428533;32;20088;-71
2022/05/07 02:24:08;;;;;;;1.77;0.77;;;13.20;99.90;;;;;;4429065;32;20521;-71
2022/05/07 02:26:34;;;;;;;0.85;0.50;;;13.10;99.90;;;;;;4428610;32;20522;-71
2022/05/07 02:28:59;;;;;;;0.50;0.50;;;13.00;99.90;;;;;;4411245;32;20073;-71
2022/05/07 02:31:25;;;;;;;1.80;1.25;;;13.00;99.90;;;;;;4410558;32;20060;-71
2022/05/07 02:33:51;;;;;;;0.57;0.57;;;13.20;99.90;;;;;;4426766;32;20077;-71
2022/05/07 02:36:16;;;;;;;0.60;0.60;;;13.20;99.90;;;;;;4434276;32;20068;-71
2022/05/07 02:38:42;;;;;;;1.25;0.80;;;13.30;99.90;;;;;;4440418;32;20084;-71
2022/05/07 02:42:40;;;;;;;0.57;0.55;;;13.20;99.90;;;;;;4440944;32;20061;-71
2022/05/07 02:43:53;;;;;;;0.40;0.40;;;13.20;99.90;;;;;;4428762;32;20065;-71
2022/05/07 02:46:18;;;;;;;0.57;0.57;;;13.20;99.90;;;;;;4443117;32;20084;-72
2022/05/07 02:48:45;;;;;;;0.52;0.52;;;13.10;99.90;;;;;;4440775;32;20130;-71
2022/05/07 02:51:12;;;;;;;0.65;0.65;;;12.90;99.90;;;;;;4440842;32;20104;-71
2022/05/07 02:53:37;;;;;;;0.95;0.90;;;12.90;99.90;;;;;;4441278;32;20065;-71
2022/05/07 02:56:03;;;;;;;1.12;0.65;;;12.90;99.90;;;;;;4440976;32;20064;-72
2022/05/07 02:58:29;;;;;;;1.00;0.95;;;13.10;99.90;;;;;;4430302;32;20143;-71
2022/05/07 03:00:55;;;;;;;0.43;0.43;;;13.10;99.90;;;;;;4418496;32;20072;-71
2022/05/07 03:03:21;;;;;;;0.47;0.47;;;13.00;99.90;;;;;;4441273;32;20081;-71
2022/05/07 03:05:46;;;;;;;5.57;1.52;;;13.10;99.90;;;;;;4440663;32;20094;-71
2022/05/07 03:08:12;;;;;;;1.33;0.47;;;13.10;99.90;;;;;;4440459;32;20065;-71
2022/05/07 03:10:37;;;;;;;0.50;0.50;;;13.20;99.90;;;;;;4440666;32;20147;-71
2022/05/07 03:13:03;;;;;;;0.47;0.47;;;13.20;99.90;;;;;;4441716;32;20549;-71
2022/05/07 03:15:28;;;;;;;0.70;0.70;;;13.30;99.90;;;;;;4441183;32;20080;-71
2022/05/07 03:17:54;;;;;;;0.73;0.73;;;13.20;99.90;;;;;;4439805;32;20509;-71
2022/05/07 03:20:19;;;;;;;24.85;0.82;;;13.10;99.90;;;;;;4441645;32;20073;-71
2022/05/07 03:22:45;;;;;;;0.50;0.50;;;12.90;99.90;;;;;;4439653;32;20069;-71
2022/05/07 03:25:11;;;;;;;0.43;0.43;;;12.80;99.90;;;;;;4440124;32;20076;-71
2022/05/07 03:27:37;;;;;;;0.90;0.82;;;12.80;99.90;;;;;;4432239;32;20065;-71
2022/05/07 03:30:04;;;;;;;1.10;0.85;;;12.90;99.90;;;;;;4418681;32;20098;-71
2022/05/07 03:32:30;;;;;;;0.65;0.47;;;13.00;99.90;;;;;;4431495;32;20120;-71
2022/05/07 03:34:57;;;;;;;0.40;0.40;;;13.00;99.90;;;;;;4440009;32;20073;-71
2022/05/07 03:37:23;;;;;;;0.50;0.50;;;12.90;99.90;;;;;;4434226;32;20121;-71
2022/05/07 03:39:50;;;;;;;0.57;0.55;;;12.90;99.90;;;;;;4427218;32;20080;-71
2022/05/07 03:42:16;;;;;;;2.67;0.70;;;12.90;99.90;;;;;;4430323;32;20481;-72
2022/05/07 03:44:41;;;;;;;0.60;0.60;;;12.90;99.90;;;;;;4432147;32;20150;-71
2022/05/07 03:47:07;;;;;;;0.68;0.55;;;13.00;99.90;;;;;;4429346;32;20529;-71
2022/05/07 03:49:32;;;;;;;0.50;0.50;;;12.80;99.90;;;;;;4431627;32;20082;-71
2022/05/07 03:53:30;;;;;;;0.68;0.55;;;12.80;99.90;;;;;;4424524;32;20078;-71
2022/05/07 03:54:43;;;;;;;0.52;0.52;;;12.90;99.90;;;;;;4413890;32;20078;-71
2022/05/07 03:57:13;;;;;;;0.65;0.65;;;12.80;99.90;;;;;;4423976;32;20131;-72
2022/05/07 03:59:39;;;;;;;0.50;0.50;;;12.60;99.90;;;;;;4407379;32;20123;-71
2022/05/07 04:02:04;;;;;;;0.30;0.30;;;12.70;99.90;;;;;;4415497;32;20420;-72
2022/05/07 04:04:30;;;;;;;0.50;0.50;;;12.70;99.90;;;;;;4426710;32;20070;-71
2022/05/07 04:06:55;;;;;;;0.32;0.32;;;12.50;99.90;;;;;;4425217;32;20088;-71
2022/05/07 04:09:21;;;;;;;0.40;0.40;;;12.60;99.90;;;;;;4426493;32;20072;-71
2022/05/07 04:11:46;;;;;;;1.00;0.60;;;12.70;99.90;;;;;;4426066;32;20560;-72
2022/05/07 04:14:12;;;;;;;1.75;1.40;;;12.70;99.90;;;;;;4427088;32;20448;-71
2022/05/07 04:16:37;;;;;;;12.93;0.93;;;12.80;99.90;;;;;;4424773;32;20377;-71
2022/05/07 04:19:03;;;;;;;1.60;0.77;;;12.80;99.90;;;;;;4425571;32;20740;-72
2022/05/07 04:21:29;;;;;;;3.62;0.88;;;12.80;99.90;;;;;;4425465;32;20065;-71
2022/05/07 04:23:54;;;;;;;0.98;0.65;;;12.70;99.90;;;;;;4426091;32;20141;-71
2022/05/07 04:26:20;;;;;;;0.65;0.50;;;12.80;99.90;;;;;;4427747;32;20442;-71
2022/05/07 04:28:45;;;;;;;0.50;0.50;;;12.80;99.90;;;;;;4411517;32;20190;-71
2022/05/07 04:31:11;;;;;;;0.82;0.82;;;12.90;99.90;;;;;;4408160;32;20078;-71
2022/05/07 04:33:36;;;;;;;2.25;1.20;;;13.00;99.90;;;;;;4430201;32;20069;-71
2022/05/07 04:36:01;;;;;;;0.50;0.50;;;13.10;99.90;;;;;;4431491;32;20086;-71
2022/05/07 04:38:27;;;;;;;0.52;0.52;;;13.10;99.90;;;;;;4448799;32;20192;-71
2022/05/07 04:40:54;;;;;;;9.05;1.95;;;13.10;99.90;;;;;;4442339;32;20065;-71
2022/05/07 04:43:21;;;;;;;0.50;0.50;;;13.10;99.90;;;;;;4443717;32;20097;-72
2022/05/07 04:45:47;;;;;;;0.50;0.50;;;13.00;99.90;;;;;;4443433;32;20065;-71
2022/05/07 04:48:12;;;;;;;0.60;0.60;;;12.90;99.90;;;;;;4442303;32;20064;-72
2022/05/07 04:50:38;;;;;;;0.35;0.35;;;12.80;99.90;;;;;;4442336;32;20146;-71
2022/05/07 04:53:05;;;;;;;0.65;0.60;;;12.80;99.90;;;;;;4443323;32;20398;-71
2022/05/07 04:55:31;;;;;;;1.75;0.88;;;13.00;99.90;;;;;;4441718;32;20060;-71
2022/05/07 04:57:57;;;;;;;5.05;1.30;;;13.10;99.90;;;;;;4433812;32;20460;-72
2022/05/07 05:00:23;;;;;;;0.25;0.25;;;13.20;99.90;;;;;;4418437;32;20120;-71
2022/05/07 05:02:48;;;;;;;5.53;1.27;;;13.20;99.90;;;;;;4437616;32;20065;-72
2022/05/07 05:05:14;;;;;;;0.47;0.47;;;13.30;99.90;;;;;;4442532;32;20757;-72
2022/05/07 05:07:39;;;;;;;0.65;0.37;;;13.30;99.90;;;;;;4442701;32;20072;-71
2022/05/07 05:10:05;;;;;;;0.52;0.52;;;13.30;99.90;;;;;;4441571;32;20062;-71
2022/05/07 05:12:32;;;;;;;0.50;0.50;;;13.40;99.90;;;;;;4443476;32;20069;-71
2022/05/07 05:15:05;;;;;;;0.50;0.50;;;13.50;99.90;;;;;;4443663;32;20069;-70
2022/05/07 05:17:32;;;;;;;1.00;0.82;;;13.40;99.90;;;;;;4440845;32;20137;-71
2022/05/07 05:19:59;;;;;;;2.47;0.52;;;13.40;99.90;;;;;;4443163;32;20110;-71
2022/05/07 05:22:24;;;;;;;1.05;0.52;;;13.50;99.90;;;;;;4442287;32;20069;-70
2022/05/07 05:24:50;;;;;;;0.40;0.40;;;13.60;99.90;;;;;;4440393;32;20135;-70
2022/05/07 05:27:15;;;;;;;0.50;0.50;;;13.60;99.90;;;;;;4439662;32;20105;-72
2022/05/07 05:29:41;;;;;;;0.82;0.73;;;13.60;99.90;;;;;;4422107;32;20092;-72
2022/05/07 05:32:07;;;;;;;0.75;0.75;;;13.60;99.90;;;;;;4431892;32;20458;-70
2022/05/07 05:34:32;;;;;;;3.67;1.30;;;13.70;99.90;;;;;;4441182;32;20065;-70
2022/05/07 05:36:58;;;;;;;1.67;0.95;;;13.80;99.90;;;;;;4433579;32;20324;-71
2022/05/07 05:39:23;;;;;;;0.50;0.50;;;14.00;99.90;;;;;;4428418;32;20081;-72
2022/05/07 05:41:49;;;;;;;0.30;0.30;;;14.10;99.90;;;;;;4425994;32;20069;-72
2022/05/07 05:44:14;;;;;;;0.45;0.45;;;14.20;99.90;;;;;;4426614;32;20085;-72
2022/05/07 05:46:40;;;;;;;1.00;0.50;;;14.30;99.90;;;;;;4422674;32;20065;-71
2022/05/07 05:49:05;;;;;;;0.30;0.30;;;14.40;99.90;;;;;;4425770;32;20571;-71
2022/05/07 05:51:31;;;;;;;0.43;0.43;;;14.50;99.90;;;;;;4428217;32;20338;-71
2022/05/07 05:53:56;;;;;;;0.32;0.32;;;14.60;99.90;;;;;;4422104;32;20094;-71
2022/05/07 05:56:22;;;;;;;1.92;0.90;;;14.70;99.90;;;;;;4425508;32;20072;-71
2022/05/07 05:58:47;;;;;;;0.40;0.40;;;14.80;99.90;;;;;;4411325;32;20206;-71
2022/05/07 06:01:13;;;;;;;0.57;0.57;;;14.90;99.90;;;;;;4418066;32;20077;-71
2022/05/07 06:03:39;;;;;;;0.40;0.40;;;15.00;99.90;;;;;;4430575;32;20109;-71
2022/05/07 06:06:04;;;;;;;0.30;0.30;;;15.10;99.90;;;;;;4427222;32;20085;-71
2022/05/07 06:08:30;;;;;;;0.45;0.45;;;15.30;99.90;;;;;;4429831;32;20077;-72
2022/05/07 06:10:57;;;;;;;0.30;0.30;;;15.40;99.90;;;;;;4426061;32;20065;-71
2022/05/07 06:13:24;;;;;;;0.32;0.32;;;15.50;99.90;;;;;;4425684;32;20480;-71
2022/05/07 06:15:52;;;;;;;0.40;0.40;;;15.60;99.90;;;;;;4426311;32;20567;-71
2022/05/07 06:18:20;;;;;;;0.68;0.68;;;15.60;99.90;;;;;;4431468;32;20066;-71
2022/05/07 06:20:45;;;;;;;0.30;0.30;;;15.70;99.90;;;;;;4431250;32;20074;-71
2022/05/07 06:23:11;;;;;;;0.30;0.30;;;15.80;99.90;;;;;;4428766;32;20081;-71
2022/05/07 06:27:36;;;;;;;0.40;0.40;;;15.90;99.90;;;;;;4425210;32;20490;-70
2022/05/07 06:28:22;;;;;;;1.95;0.60;;;16.00;99.90;;;;;;4406885;32;20141;-71
2022/05/07 06:30:48;;;;;;;0.55;0.55;;;16.10;99.90;;;;;;4404697;32;20164;-70
2022/05/07 06:33:14;;;;;;;0.40;0.40;;;16.20;99.90;;;;;;4428806;32;20078;-71
2022/05/07 06:35:40;;;;;;;1.15;0.40;;;16.40;99.90;;;;;;4431888;32;20583;-70
2022/05/07 06:38:05;;;;;;;0.40;0.40;;;16.50;99.90;;;;;;4441160;32;20061;-70
2022/05/07 06:40:31;;;;;;;0.62;0.62;;;16.60;99.90;;;;;;4439749;32;20116;-70
2022/05/07 06:42:56;;;;;;;0.55;0.55;;;16.70;99.90;;;;;;4439747;32;20081;-72
2022/05/07 06:45:22;;;;;;;0.55;0.55;;;16.70;99.90;;;;;;4442559;32;20068;-70
2022/05/07 06:47:48;;;;;;;0.47;0.47;;;16.80;99.90;;;;;;4441345;32;20065;-72
2022/05/07 06:50:13;;;;;;;0.30;0.30;;;16.90;99.90;;;;;;4441605;32;20064;-71
2022/05/07 06:52:44;;;;;;;0.40;0.40;;;16.90;99.90;;;;;;4440130;32;20073;-71
2022/05/07 06:55:14;;;;;;;0.35;0.35;;;17.00;99.90;;;;;;4439925;32;20102;-71
2022/05/07 06:57:39;;;;;;;0.45;0.45;;;17.10;99.90;;;;;;4438558;32;20081;-70
2022/05/07 07:00:05;;;;;;;0.40;0.40;;;17.10;99.90;;;;;;4421824;32;20085;-71
2022/05/07 07:02:31;;;;;;;1.80;0.93;;;17.20;99.90;;;;;;4434629;32;20085;-71
2022/05/07 07:04:57;;;;;;;0.30;0.30;;;17.30;99.90;;;;;;4440726;32;20072;-71
2022/05/07 07:07:25;;;;;;;0.88;0.73;;;17.40;99.90;;;;;;4442988;32;20124;-71
2022/05/07 07:09:51;;;;;;;0.50;0.50;;;17.50;99.90;;;;;;4440163;32;20527;-72
2022/05/07 07:12:16;;;;;;;0.40;0.40;;;17.60;99.90;;;;;;4440157;32;20118;-73
2022/05/07 07:14:42;;;;;;;0.52;0.52;;;17.60;99.90;;;;;;4441453;32;20084;-72
2022/05/07 07:17:07;;;;;;;0.80;0.52;;;17.60;99.90;;;;;;4440258;32;20102;-71
2022/05/07 07:19:34;;;;;;;0.45;0.45;;;17.60;99.90;;;;;;4442277;32;20077;-73
2022/05/07 07:22:00;;;;;;;0.40;0.40;;;17.70;98.80;;;;;;4439342;32;20061;-71
2022/05/07 07:24:25;;;;;;;0.40;0.40;;;17.70;99.40;;;;;;4443236;32;20060;-72
2022/05/07 07:26:52;;;;;;;0.50;0.50;;;17.80;99.60;;;;;;4438352;32;20073;-73
2022/05/07 07:29:17;;;;;;;0.55;0.55;;;17.80;99.60;;;;;;4420498;32;20065;-72
2022/05/07 07:31:43;;;;;;;0.95;0.93;;;17.80;98.70;;;;;;4426886;32;20402;-72
2022/05/07 07:34:08;;;;;;;0.40;0.40;;;17.90;98.60;;;;;;4438774;32;20410;-72
2022/05/07 07:36:34;;;;;;;0.40;0.40;;;18.10;98.20;;;;;;4437924;32;78968;-72
2022/05/07 07:39:00;;;;;;;1.85;0.77;;;18.30;97.40;;;;;;4441031;32;20057;-72
2022/05/07 07:41:25;;;;;;;0.30;0.30;;;18.40;97.40;;;;;;4439862;32;20088;-72
2022/05/07 07:43:51;;;;;;;0.30;0.30;;;18.60;97.20;;;;;;4441250;32;20438;-72
2022/05/07 07:48:17;;;;;;;0.30;0.30;;;18.70;97.00;;;;;;4440338;32;20086;-72
2022/05/07 07:49:02;;;;;;;0.40;0.40;;;18.80;96.10;;;;;;4427600;32;20174;-72
2022/05/07 07:51:29;;;;;;;0.60;0.60;;;19.00;96.20;;;;;;4443924;32;20068;-74
2022/05/07 07:53:54;;;;;;;0.30;0.30;;;19.00;95.90;;;;;;4440718;32;20080;-71
2022/05/07 07:56:20;;;;;;;0.77;0.77;;;19.10;94.70;;;;;;4440336;32;20108;-74
2022/05/07 07:58:45;;;;;;;0.32;0.32;;;19.10;94.80;;;;;;4426550;32;20203;-72
2022/05/07 08:01:11;;;;;;;0.40;0.40;;;19.20;95.00;;;;;;4421251;32;20444;-72
2022/05/07 08:03:36;;;;;;;0.60;0.60;;;19.40;94.90;;;;;;4443518;32;20127;-72
2022/05/07 08:06:02;;;;;;;0.60;0.60;;;19.50;94.00;;;;;;4440335;32;20065;-71
2022/05/07 08:11:47;;;;;;;0.40;0.40;;;19.90;94.00;;;;;;4428887;32;20124;-72
2022/05/07 08:13:59;;;;;;;0.50;0.50;;;20.00;93.10;;;;;;4431097;32;20105;-73
2022/05/07 08:16:25;;;;;;;0.82;0.82;;;20.00;92.10;;;;;;4444019;32;20082;-72
2022/05/07 08:18:51;;;;;;;13.55;1.85;;;20.00;92.60;;;;;;4447003;32;20141;-72
2022/05/07 08:21:18;;;;;;;0.70;0.65;;;20.20;92.60;;;;;;4442987;32;20077;-72
2022/05/07 08:23:43;;;;;;;0.60;0.60;;;20.30;92.10;;;;;;4445119;32;20143;-72
2022/05/07 08:26:10;;;;;;;0.55;0.40;;;20.20;91.50;;;;;;4442183;32;20120;-72
2022/05/07 08:28:37;;;;;;;3.20;0.50;;;20.30;91.90;;;;;;4431722;32;20584;-72
2022/05/07 08:31:04;;;;;;;1.37;0.62;;;20.40;91.30;;;;;;4423882;32;20528;-72
2022/05/07 08:33:33;;;;;;;0.30;0.30;;;20.50;91.20;;;;;;4445760;32;20418;-72
2022/05/07 08:35:59;;;;;;;0.40;0.40;;;20.50;91.00;;;;;;4441319;32;20082;-72
2022/05/07 08:38:25;;;;;;;0.20;0.20;;;20.60;91.40;;;;;;4442212;32;20069;-72
2022/05/07 08:40:51;;;;;;;0.52;0.50;;;20.80;91.30;;;;;;4440710;32;20429;-72
2022/05/07 08:43:17;;;;;;;0.40;0.40;;;21.00;90.50;;;;;;4442627;32;20564;-72
2022/05/07 08:45:44;;;;;;;2.10;0.73;;;20.80;90.50;;;;;;4442515;32;20077;-72
2022/05/07 08:48:09;;;;;;;0.40;0.40;;;21.00;91.80;;;;;;4445092;32;20068;-73
2022/05/07 08:50:35;;;;;;;1.55;0.85;;;21.00;88.60;;;;;;4444543;32;20131;-72
2022/05/07 08:53:01;;;;;;;0.62;0.40;;;21.10;90.10;;;;;;4443064;32;20122;-72
2022/05/07 08:55:27;;;;;;;1.35;0.90;;;21.20;88.00;;;;;;4444512;32;20126;-72
2022/05/07 08:57:53;;;;;;;1.20;0.70;;;21.20;87.00;;;;;;4436190;32;20093;-73
2022/05/07 09:00:23;;;;;;;0.43;0.43;;;21.40;86.30;;;;;;4418464;32;20069;-73
2022/05/07 09:02:51;;;;;;;0.75;0.50;;;21.40;85.60;;;;;;4441594;32;20089;-73
2022/05/07 09:05:18;;;;;;;0.32;0.32;;;21.20;87.10;;;;;;4442634;32;20160;-72
2022/05/07 09:07:53;;;;;;;2.72;0.60;;;20.80;88.00;;;;;;4442617;32;20081;-72
2022/05/07 09:10:19;;;;;;;2.40;1.20;;;20.60;87.30;;;;;;4443375;32;20521;-72
2022/05/07 09:12:45;;;;;;;0.30;0.30;;;20.70;88.30;;;;;;4443828;32;20077;-72
2022/05/07 09:15:11;;;;;;;1.67;0.82;;;20.90;88.50;;;;;;4443644;32;20085;-73
2022/05/07 09:17:37;;;;;;;0.40;0.40;;;21.10;89.10;;;;;;4444053;32;20708;-72
2022/05/07 09:20:12;;;;;;;0.45;0.45;;;21.30;89.10;;;;;;4442721;32;20551;-72
2022/05/07 09:22:55;;;;;;;0.30;0.30;;;21.20;88.80;;;;;;4437961;32;20415;-72
2022/05/07 09:25:23;;;;;;;0.65;0.65;;;21.20;89.30;;;;;;4437397;32;20065;-73
2022/05/07 09:27:51;;;;;;;3.47;0.62;;;21.20;90.30;;;;;;4431484;32;20527;-72
2022/05/07 09:30:23;;;;;;;1.95;0.93;;;21.10;88.10;;;;;;4418955;32;20056;-72
2022/05/07 09:32:50;;;;;;;0.80;0.77;;;21.10;87.40;;;;;;4429884;32;20068;-72
2022/05/07 09:35:47;;;;;;;0.40;0.40;;;20.90;87.80;;;;;;4432510;32;20133;-72
2022/05/07 09:38:02;;;;;;;0.40;0.40;;;20.90;88.30;;;;;;4423274;32;20137;-71
2022/05/07 09:40:29;;;;;;;0.37;0.37;;;20.90;90.20;;;;;;4431721;32;20060;-71
2022/05/07 09:42:58;;;;;;;0.35;0.35;;;21.10;89.10;;;;;;4431383;32;20073;-71
2022/05/07 09:45:26;;;;;;;0.47;0.47;;;21.50;89.60;;;;;;4440164;32;20057;-70
2022/05/07 09:47:51;;;;;;;0.73;0.65;;;21.80;86.00;;;;;;4440968;32;20073;-71
2022/05/07 09:50:19;;;;;;;0.50;0.50;;;21.90;87.60;;;;;;4438417;32;20426;-71
2022/05/07 09:58:18;;;;;;;0.30;0.30;;;22.20;85.90;;;;;;4417347;32;20145;-71
2022/05/07 10:01:11;;;;;;;0.40;0.40;;;22.20;86.00;;;;;;4421494;32;20783;-69
2022/05/07 10:03:47;;;;;;;0.40;0.40;;;22.40;86.10;;;;;;4422587;32;20387;-70
2022/05/07 10:06:29;;;;;;;0.40;0.40;;;22.70;86.50;;;;;;4433800;32;20054;-70
2022/05/07 10:09:23;;;;;;;0.40;0.40;;;23.30;86.40;;;;;;4442796;32;20072;-69
2022/05/07 10:11:53;;;;;;;1.00;0.77;;;23.40;83.80;;;;;;4441277;32;20065;-70
2022/05/07 10:14:29;;;;;;;1.98;0.95;;;23.10;83.40;;;;;;4439754;32;20073;-69
2022/05/07 10:17:00;;;;;;;1.00;0.88;;;23.30;84.80;;;;;;4441803;32;20085;-69
2022/05/07 10:19:39;;;;;;;0.43;0.43;;;23.50;82.80;;;;;;4440436;32;20092;-69
2022/05/07 10:22:23;;;;;;;0.20;0.20;;;23.70;82.70;;;;;;4440764;32;20080;-69
2022/05/07 10:25:04;;;;;;;0.40;0.40;;;23.70;82.40;;;;;;4438195;32;20092;-70
2022/05/07 10:27:31;;;;;;;1.02;0.73;;;23.70;82.40;;;;;;4434524;32;20125;-69
2022/05/07 10:30:08;;;;;;;0.30;0.30;;;23.90;80.20;;;;;;4419024;32;20439;-69
2022/05/07 10:33:05;;;;;;;0.55;0.40;;;24.00;81.50;;;;;;4432670;32;20092;-68
2022/05/07 10:35:40;;;;;;;0.40;0.40;;;24.30;81.30;;;;;;4431585;32;20081;-69
2022/05/07 10:38:07;;;;;;;0.20;0.20;;;24.30;80.60;;;;;;4445237;32;20077;-69
2022/05/07 10:40:33;;;;;;;0.45;0.45;;;24.40;80.70;;;;;;4439780;32;20061;-71
2022/05/07 10:42:59;;;;;;;0.52;0.30;;;24.50;81.50;;;;;;4441476;32;20367;-69
2022/05/07 10:45:24;;;;;;;0.20;0.20;;;24.70;79.70;;;;;;4440692;32;20081;-71
2022/05/07 10:47:57;;;;;;;0.20;0.20;;;24.70;77.80;;;;;;4441340;32;20836;-71
2022/05/07 10:50:23;;;;;;;0.20;0.20;;;24.90;79.40;;;;;;4441758;32;20109;-71
2022/05/07 10:52:57;;;;;;;1.08;0.22;;;25.30;79.50;;;;;;4439494;32;20081;-71
2022/05/07 10:55:25;;;;;;;0.40;0.30;;;25.50;77.80;;;;;;4440430;32;20566;-72
2022/05/07 10:57:51;;;;;;;0.45;0.28;;;25.30;77.50;;;;;;4434094;32;20373;-70
2022/05/07 11:00:19;;;;;;;0.40;0.30;;;25.80;76.20;;;;;;4418771;32;20070;-70
2022/05/07 11:02:47;;;;;;;0.20;0.20;;;25.50;77.00;;;;;;4430720;32;20085;-69
2022/05/07 11:05:13;;;;;;;1.12;0.40;;;25.10;76.80;;;;;;4430714;32;20085;-70
2022/05/07 11:07:40;;;;;;;0.20;0.20;;;24.90;78.60;;;;;;4440410;32;20073;-70
2022/05/07 11:10:07;;;;;;;0.10;0.10;;;24.80;78.60;;;;;;4439705;32;20069;-70
2022/05/07 11:12:35;;;;;;;0.20;0.20;;;24.60;77.90;;;;;;4441946;32;20116;-69
2022/05/07 11:15:02;;;;;;;0.43;0.35;;;24.40;78.80;;;;;;4441228;32;20065;-71
2022/05/07 11:17:33;;;;;;;0.32;0.32;;;24.10;80.40;;;;;;4440579;32;20080;-70
2022/05/07 11:19:59;;;;;;;1.65;0.75;;;24.00;80.50;;;;;;4440492;32;20085;-70
2022/05/07 11:22:33;;;;;;;0.30;0.30;;;24.00;82.10;;;;;;4440309;32;20134;-70
2022/05/07 11:25:00;;;;;;;0.20;0.20;;;24.00;82.60;;;;;;4439829;32;20470;-70
2022/05/07 11:27:32;;;;;;;0.20;0.20;;;23.90;81.90;;;;;;4434367;32;20115;-70
2022/05/07 11:30:00;;;;;;;0.45;0.45;;;24.30;80.90;;;;;;4419987;32;20069;-70
2022/05/07 11:32:36;;;;;;;0.45;0.45;;;24.90;80.00;;;;;;4430442;32;20077;-70
2022/05/07 11:35:02;;;;;;;0.40;0.40;;;25.00;78.40;;;;;;4431516;32;20069;-69
2022/05/07 11:37:27;;;;;;;0.88;0.40;;;24.80;78.20;;;;;;4433519;32;20442;-70
2022/05/07 11:39:57;;;;;;;0.40;0.40;;;24.90;78.80;;;;;;4436387;32;20085;-70
2022/05/07 11:42:43;;;;;;;0.20;0.20;;;25.20;79.60;;;;;;4438416;32;20275;-71
2022/05/07 11:45:29;;;;;;;0.45;0.45;;;25.60;76.70;;;;;;4440884;32;20513;-70
2022/05/07 11:48:13;;;;;;;0.20;0.20;;;25.40;77.00;;;;;;4437013;32;20124;-70
2022/05/07 11:50:49;;;;;;;0.30;0.30;;;25.40;77.90;;;;;;4440212;32;20085;-69
2022/05/07 11:53:17;;;;;;;0.30;0.30;;;26.20;77.00;;;;;;4443508;32;20076;-69
2022/05/07 11:55:44;;;;;;;0.10;0.10;;;26.80;76.40;;;;;;4438523;32;21323;-71
2022/05/07 11:58:22;;;;;;;0.30;0.30;;;27.10;76.10;;;;;;4430993;32;20086;-70
2022/05/07 12:00:49;;;;;;;3.20;0.80;;;26.70;75.80;;;;;;4416064;32;20120;-70
2022/05/07 12:03:19;;;;;;;0.45;0.40;;;25.90;77.00;;;;;;4431220;32;20150;-70
2022/05/07 12:05:47;;;;;;;1.25;0.62;;;25.60;78.70;;;;;;4429464;32;20072;-70
2022/05/07 12:08:34;;;;;;;1.00;0.30;;;25.20;78.60;;;;;;4439064;32;20080;-70
2022/05/07 12:11:00;;;;;;;0.40;0.40;;;25.20;78.80;;;;;;4429474;32;20080;-70
2022/05/07 12:13:26;;;;;;;0.30;0.30;;;25.10;78.60;;;;;;4439041;32;20533;-70
2022/05/07 12:17:55;;;;;;;1.30;0.60;;;24.90;79.30;;;;;;4440962;32;20329;-70
2022/05/07 12:18:49;;;;;;;0.20;0.20;;;24.80;80.30;;;;;;4427286;32;20077;-71
2022/05/07 12:21:15;;;;;;;0.20;0.20;;;24.90;79.40;;;;;;4441406;32;20433;-71
2022/05/07 12:30:12;;;;;;;0.10;0.10;;;24.40;80.00;;;;;;4418897;32;20081;-70
2022/05/07 12:31:58;;;;;;;0.75;0.40;;;25.20;78.70;;;;;;4412449;32;20077;-70
2022/05/07 12:34:23;;;;;;;0.30;0.30;;;25.70;76.80;;;;;;4433882;32;20065;-71
2022/05/07 12:36:49;;;;;;;0.10;0.10;;;25.80;76.70;;;;;;4433554;32;20159;-70
2022/05/07 12:39:14;;;;;;;0.17;0.17;;;25.60;77.00;;;;;;4438482;32;20097;-71
2022/05/07 12:41:42;;;;;;;0.00;0.00;;;25.70;76.40;;;;;;4438926;32;20057;-70
2022/05/07 12:44:08;;;;;;;0.47;0.20;;;26.20;76.40;;;;;;4439816;32;20061;-70
2022/05/07 12:46:33;;;;;;;0.28;0.28;;;26.40;74.50;;;;;;4442807;32;20077;-70
2022/05/07 12:48:59;;;;;;;0.40;0.40;;;26.00;76.00;;;;;;4442670;32;20085;-70
2022/05/07 12:51:25;;;;;;;0.20;0.20;;;25.40;77.20;;;;;;4446009;32;20094;-70
2022/05/07 12:53:52;;;;;;;0.13;0.13;;;25.40;77.70;;;;;;4442094;32;20171;-70
2022/05/07 12:56:18;;;;;;;0.37;0.30;;;25.80;77.50;;;;;;4441642;32;20096;-71
2022/05/07 12:58:43;;;;;;;0.20;0.20;;;26.40;77.60;;;;;;4428890;32;20068;-71
2022/05/07 13:01:11;;;;;;;0.20;0.20;;;27.30;75.70;;;;;;4424987;32;20096;-70
2022/05/07 13:03:37;;;;;;;0.60;0.60;;;27.50;73.80;;;;;;4433428;32;20072;-70